Flight Track Log - Related Links

Times and Time Zones

All times are in EST time to prevent confusion due to time zone crossing. See the EJA922 flight status page for this flight to view local times or setup timezone preferences in your user account.


Time Position Orientation Groundspeed Altitude Reporting Facility
EST Latitude Longitude Course Direction KTS MPH feet Rate Location/Type
Mon 02:12:36 PM 26.4381 -80.0586 310° West 230 265 3,500  Level Miami Center
Mon 02:13:36 PM 26.4786 -80.1131 310° West 247 284 6,600 3,150 Climbing Miami Center
Mon 02:14:36 PM 26.4894 -80.1922 279° West 228 262 9,800 1,950 Climbing Miami Center
Mon 02:15:36 PM 26.5039 -80.2808 280° West 268 308 10,500 1,800 Climbing Miami Center
Mon 02:16:36 PM 26.5925 -80.3297 334° Northwest 307 353 13,400 2,500 Climbing Miami Center
Mon 02:17:36 PM 26.6878 -80.3697 339° North 333 383 15,500 2,200 Climbing Miami Center
Mon 02:18:36 PM 26.7933 -80.4103 341° North 387 445 17,800 2,200 Climbing Miami Center
Mon 02:19:36 PM 26.8944 -80.4528 339° North 392 451 19,900 1,750 Climbing Miami Center
Mon 02:20:36 PM 27.0042 -80.4914 343° North 397 457 21,300 1,450 Climbing Miami Center
Mon 02:21:36 PM 27.1181 -80.5297 343° North 408 470 22,800 1,550 Climbing Miami Center
Mon 02:22:36 PM 27.2342 -80.5686 343° North 421 484 24,400 1,650 Climbing Miami Center
Mon 02:23:36 PM 27.3522 -80.6075 344° North 433 498 26,100 1,550 Climbing Miami Center
Mon 02:24:36 PM 27.4722 -80.6464 344° North 439 505 27,500 1,400 Climbing Miami Center
Mon 02:25:36 PM 27.5964 -80.6881 343° North 444 511 28,900 1,400 Climbing Miami Center
Mon 02:26:36 PM 27.7139 -80.7364 340° North 449 517 30,300 1,350 Climbing Miami Center
Mon 02:27:36 PM 27.7992 -80.8286 316° Northwest 431 496 31,600 1,550 Climbing Miami Center
Mon 02:28:36 PM 27.8800 -80.9278 313° West 426 490 33,400 1,950 Climbing Miami Center
Mon 02:29:36 PM 27.9544 -81.0172 313° West 421 484 35,500 2,050 Climbing Miami Center
Mon 02:30:36 PM 28.0392 -81.1239 312° West 427 491 37,500 2,100 Climbing Miami Center
Mon 02:31:36 PM 28.1075 -81.2089 312° West 415 478 39,700 1,950 Climbing Miami Center
Mon 02:32:36 PM 28.1858 -81.3036 313° West 415 478 41,400 1,565 Climbing Miami Center
Mon 02:33:31 PM 28.2644 -81.3986 313° West 413 475 42,700 842 Climbing Jacksonville Center
Mon 02:34:30 PM 28.3406 -81.4869 314° West 408 470 43,000 150 Climbing Jacksonville Center
Mon 02:35:31 PM 28.4231 -81.5897 312° West 415 478 43,000  Level Jacksonville Center
Mon 02:36:31 PM 28.5033 -81.6925 312° West 427 491 43,000  Level Jacksonville Center
Mon 02:37:30 PM 28.5919 -81.7931 315° West 440 506 43,000  Level Jacksonville Center
Mon 02:38:30 PM 28.6761 -81.8939 314° West 440 506 43,000  Level Jacksonville Center
Mon 02:39:30 PM 28.7603 -81.9950 314° West 439 505 43,000  Level Jacksonville Center
Mon 02:40:30 PM 28.8797 -82.0650 333° Northwest 458 527 43,000  Level Jacksonville Center
Mon 02:41:30 PM 28.9908 -82.1139 339° North 466 536 43,000  Level Jacksonville Center
Mon 02:42:31 PM 29.1164 -82.1747 337° Northwest 473 544 43,000  Level Jacksonville Center
Mon 02:43:31 PM 29.2419 -82.2333 338° Northwest 483 556 43,000  Level Jacksonville Center
Mon 02:44:30 PM 29.3694 -82.2944 337° Northwest 488 562 43,000  Level Jacksonville Center
Mon 02:45:31 PM 29.4972 -82.3556 337° Northwest 488 562 43,000  Level Jacksonville Center
Mon 02:46:31 PM 29.6225 -82.4147 338° Northwest 494 568 43,000  Level Jacksonville Center
Mon 02:47:30 PM 29.7481 -82.4764 337° Northwest 494 568 43,000  Level Jacksonville Center
Mon 02:48:31 PM 29.8756 -82.5356 338° Northwest 494 568 43,000  Level Jacksonville Center
Mon 02:49:31 PM 29.9989 -82.5975 336° Northwest 494 568 43,000  Level Jacksonville Center
Mon 02:50:31 PM 30.1264 -82.6597 337° Northwest 494 568 43,000  Level Jacksonville Center
Mon 02:51:31 PM 30.2517 -82.7194 338° Northwest 489 563 43,000  Level Jacksonville Center
Mon 02:52:30 PM 30.3917 -82.7867 338° Northwest 489 563 43,000  Level Jacksonville Center
Mon 02:53:30 PM 30.5192 -82.8492 337° Northwest 489 563 43,000  Level Jacksonville Center
Mon 02:54:30 PM 30.6422 -82.9142 336° Northwest 489 563 43,000  Level Jacksonville Center
Mon 02:55:30 PM 30.7717 -82.9772 337° Northwest 489 563 43,000  Level Jacksonville Center
Mon 02:56:31 PM 30.8867 -83.0331 337° Northwest 494 568 43,000  Level Jacksonville Center
Mon 02:57:31 PM 31.0139 -83.0986 336° Northwest 499 574 43,000  Level Jacksonville Center
Mon 02:59:41 PM 31.2911 -83.2369 337° Northwest 497 572 43,000  Level Atlanta Center
Mon 03:00:41 PM 31.4189 -83.3017 337° Northwest 497 572 43,000  Level Atlanta Center
Mon 03:01:41 PM 31.5464 -83.3639 337° Northwest 497 572 43,000  Level Atlanta Center
Mon 03:02:41 PM 31.6719 -83.4264 337° Northwest 497 572 43,000  Level Atlanta Center
Mon 03:03:41 PM 31.8017 -83.4889 338° Northwest 492 566 43,000  Level Atlanta Center
Mon 03:04:41 PM 31.9356 -83.5714 332° Northwest 498 573 43,000  Level Atlanta Center
Mon 03:05:41 PM 32.0589 -83.6369 336° Northwest 486 559 43,000  Level Atlanta Center
Mon 03:06:41 PM 32.1844 -83.7028 336° Northwest 486 559 43,000  Level Atlanta Center
Mon 03:07:41 PM 32.3078 -83.7661 337° Northwest 486 559 43,000  Level Atlanta Center
Mon 03:08:41 PM 32.4331 -83.8322 336° Northwest 486 559 43,000  Level Atlanta Center
Mon 03:09:41 PM 32.5564 -83.8958 337° Northwest 481 554 43,000  Level Atlanta Center
Mon 03:10:41 PM 32.6817 -83.9597 337° Northwest 481 554 43,000  Level Atlanta Center
Mon 03:11:41 PM 32.8028 -84.0264 335° Northwest 481 554 43,000  Level Atlanta Center
Mon 03:12:41 PM 32.9281 -84.0908 337° Northwest 481 554 43,000  Level Atlanta Center
Mon 03:13:41 PM 33.0511 -84.1553 336° Northwest 481 554 43,000  Level Atlanta Center
Mon 03:14:41 PM 33.1700 -84.2225 335° Northwest 475 547 43,000  Level Atlanta Center
Mon 03:15:41 PM 33.2908 -84.2850 337° Northwest 475 547 43,000  Level Atlanta Center
Mon 03:16:41 PM 33.4139 -84.3500 336° Northwest 480 552 43,000  Level Atlanta Center
Mon 03:17:41 PM 33.5369 -84.4150 336° Northwest 480 552 43,000  Level Atlanta Center
Mon 03:18:41 PM 33.6475 -84.4706 337° Northwest 480 552 43,000  Level Atlanta Center
Mon 03:19:41 PM 33.7828 -84.5436 336° Northwest 485 558 43,000  Level Atlanta Center
Mon 03:20:41 PM 33.9036 -84.6094 336° Northwest 480 552 43,000  Level Atlanta Center
Mon 03:21:41 PM 34.0264 -84.6756 336° Northwest 480 552 43,000 -250 Level Atlanta Center
Mon 03:22:41 PM 34.1408 -84.7339 337° Northwest 490 564 42,500 -750 Descending Atlanta Center
Mon 03:23:41 PM 34.2678 -84.8031 336° Northwest 479 551 41,500 -1,300 Descending Atlanta Center
Mon 03:24:41 PM 34.3883 -84.8669 336° Northwest 474 545 39,900 -2,150 Descending Atlanta Center
Mon 03:25:41 PM 34.5111 -84.9361 335° Northwest 480 552 37,200 -2,700 Descending Atlanta Center
Mon 03:26:41 PM 34.6317 -85.0006 336° Northwest 480 552 34,500 -1,600 Descending Atlanta Center
Mon 03:27:41 PM 34.7292 -85.0750 328° Northwest 474 545 34,000 -250 Descending Atlanta Center
Mon 03:28:41 PM 34.8453 -85.1625 328° Northwest 474 545 34,000 -100 Level Atlanta Center
Mon 03:29:41 PM 34.9569 -85.2503 327° Northwest 479 551 33,800 -850 Descending Atlanta Center
Mon 03:30:41 PM 35.0667 -85.3381 327° Northwest 474 545 32,300 -1,770 Descending Atlanta Center
Mon 03:32:00 PM 35.2100 -85.4683 323° Northwest 471 542 29,700 -2,213 Descending Memphis Center
Mon 03:33:02 PM 35.2981 -85.5828 313° West 460 529 27,100 -2,419 Descending Memphis Center
Mon 03:34:04 PM 35.3858 -85.6944 314° West 454 522 24,700 -2,226 Descending Memphis Center
Mon 03:35:06 PM 35.4636 -85.7961 313° West 421 484 22,500 -2,371 Descending Memphis Center
Mon 03:36:08 PM 35.5378 -85.8911 314° West 394 453 19,800 -2,516 Descending Memphis Center
Mon 03:37:10 PM 35.6175 -85.9950 313° West 369 425 17,300 -2,806 Descending Memphis Center
Mon 03:38:12 PM 35.6811 -86.0811 312° West 343 395 14,000 -2,371 Descending Memphis Center
Mon 03:39:14 PM 35.7322 -86.1508 312° West 283 326 12,400 -1,258 Descending Memphis Center
Mon 03:40:16 PM 35.7781 -86.2114 313° West 250 288 11,400 -919 Descending Memphis Center
Mon 03:41:18 PM 35.8203 -86.2683 312° West 230 265 10,500 -919 Descending Memphis Center
Mon 03:42:20 PM 35.8689 -86.3303 314° West 216 249 9,500 -919 Descending Memphis Center
Mon 03:43:22 PM 35.9125 -86.3858 314° West 220 253 8,600 -871 Descending Memphis Center
Mon 03:44:24 PM 35.9525 -86.4406 312° West 217 250 7,700 -816 Descending Memphis Center
Mon 03:45:27 PM 35.9933 -86.4936 314° West 212 244 6,900 -768 Descending Memphis Center
Mon 03:46:29 PM 36.0328 -86.5456 313° West 208 239 6,100 -774 Descending Memphis Center
Mon 03:47:31 PM 36.0844 -86.5694 340° North 216 249 5,300 -968 Descending Memphis Center
Mon 03:48:33 PM 36.1489 -86.5422 19° North 242 278 4,100 -1,113 Descending Memphis Center
Mon 03:49:35 PM 36.2156 -86.5169 17° North 228 262 3,000 -1,016 Descending Memphis Center
Mon 03:50:37 PM 36.2089 -86.5786 262° West 210 242 2,000 -774 Descending Memphis Center
Mon 03:51:39 PM 36.1853 -86.6297 240° Southwest 184 212 1,400 -484 Descending Memphis Center
Mon 03:52:41 PM 36.1561 -86.6511 211° Southwest 144 166 1,000 -339 Descending Memphis Center
Mon 03:53:43 PM 36.1225 -86.6658 199° South 134 154 700 -290 Descending Memphis Center
Mon 03:55:00 PM 36.1167 -86.6667 292° West  Level FlightAware Approximate

Login

Don't have an account? Register now (free) for customized features, flight alerts, and more!